sensor_id;sensor_type;location;lat;lon;timestamp;temperature;humidity
17994;DHT22;9122;48.406;9.984;2022-09-09T00:00:33;16.80;85.90
17994;DHT22;9122;48.406;9.984;2022-09-09T00:03:47;16.80;86.00
17994;DHT22;9122;48.406;9.984;2022-09-09T00:09:53;16.70;86.20
17994;DHT22;9122;48.406;9.984;2022-09-09T00:16:24;16.60;86.40
17994;DHT22;9122;48.406;9.984;2022-09-09T00:19:24;16.60;86.70
17994;DHT22;9122;48.406;9.984;2022-09-09T00:22:19;16.60;87.00
17994;DHT22;9122;48.406;9.984;2022-09-09T00:25:15;16.50;87.00
17994;DHT22;9122;48.406;9.984;2022-09-09T00:28:01;16.50;87.20
17994;DHT22;9122;48.406;9.984;2022-09-09T00:30:46;16.50;87.30
17994;DHT22;9122;48.406;9.984;2022-09-09T00:33:35;16.40;87.40
17994;DHT22;9122;48.406;9.984;2022-09-09T00:36:22;16.40;87.40
17994;DHT22;9122;48.406;9.984;2022-09-09T00:39:42;16.30;87.40
17994;DHT22;9122;48.406;9.984;2022-09-09T00:42:49;16.30;87.60
17994;DHT22;9122;48.406;9.984;2022-09-09T00:55:16;16.20;88.10
17994;DHT22;9122;48.406;9.984;2022-09-09T00:58:07;16.20;88.10
17994;DHT22;9122;48.406;9.984;2022-09-09T01:01:05;16.20;88.30
17994;DHT22;9122;48.406;9.984;2022-09-09T01:03:55;16.20;88.40
17994;DHT22;9122;48.406;9.984;2022-09-09T01:06:39;16.20;88.30
17994;DHT22;9122;48.406;9.984;2022-09-09T01:15:22;16.10;88.30
17994;DHT22;9122;48.406;9.984;2022-09-09T01:18:11;16.10;88.50
17994;DHT22;9122;48.406;9.984;2022-09-09T01:24:24;16.00;89.00
17994;DHT22;9122;48.406;9.984;2022-09-09T01:27:13;15.90;89.20
17994;DHT22;9122;48.406;9.984;2022-09-09T01:29:58;15.90;89.30
17994;DHT22;9122;48.406;9.984;2022-09-09T01:38:16;15.90;89.30
17994;DHT22;9122;48.406;9.984;2022-09-09T01:41:01;15.80;89.10
17994;DHT22;9122;48.406;9.984;2022-09-09T01:43:47;15.80;89.20
17994;DHT22;9122;48.406;9.984;2022-09-09T01:46:32;15.80;89.30
17994;DHT22;9122;48.406;9.984;2022-09-09T01:49:16;15.70;89.30
17994;DHT22;9122;48.406;9.984;2022-09-09T01:52:01;15.70;89.30
17994;DHT22;9122;48.406;9.984;2022-09-09T01:54:46;15.70;89.30
17994;DHT22;9122;48.406;9.984;2022-09-09T02:03:54;15.60;89.40
17994;DHT22;9122;48.406;9.984;2022-09-09T02:06:40;15.60;89.60
17994;DHT22;9122;48.406;9.984;2022-09-09T02:09:25;15.50;89.50
17994;DHT22;9122;48.406;9.984;2022-09-09T02:12:13;15.50;89.50
17994;DHT22;9122;48.406;9.984;2022-09-09T02:15:07;15.50;89.60
17994;DHT22;9122;48.406;9.984;2022-09-09T02:17:57;15.50;89.70
17994;DHT22;9122;48.406;9.984;2022-09-09T02:20:44;15.40;89.80
17994;DHT22;9122;48.406;9.984;2022-09-09T02:23:29;15.40;89.80
17994;DHT22;9122;48.406;9.984;2022-09-09T02:26:16;15.40;90.00
17994;DHT22;9122;48.406;9.984;2022-09-09T02:29:08;15.40;89.80
17994;DHT22;9122;48.406;9.984;2022-09-09T02:31:56;15.30;90.00
17994;DHT22;9122;48.406;9.984;2022-09-09T02:34:49;15.30;90.00
17994;DHT22;9122;48.406;9.984;2022-09-09T02:37:39;15.30;90.10
17994;DHT22;9122;48.406;9.984;2022-09-09T02:40:23;15.30;90.10
17994;DHT22;9122;48.406;9.984;2022-09-09T02:43:07;15.20;90.10
17994;DHT22;9122;48.406;9.984;2022-09-09T02:52:26;15.10;90.10
17994;DHT22;9122;48.406;9.984;2022-09-09T02:55:29;15.10;90.30
17994;DHT22;9122;48.406;9.984;2022-09-09T02:58:17;15.00;90.30
17994;DHT22;9122;48.406;9.984;2022-09-09T03:01:02;15.00;90.40
17994;DHT22;9122;48.406;9.984;2022-09-09T03:03:47;15.00;90.50
17994;DHT22;9122;48.406;9.984;2022-09-09T03:06:32;15.00;90.50
17994;DHT22;9122;48.406;9.984;2022-09-09T03:09:16;14.90;90.50
17994;DHT22;9122;48.406;9.984;2022-09-09T03:12:01;15.00;90.50
17994;DHT22;9122;48.406;9.984;2022-09-09T03:14:45;14.90;90.50
17994;DHT22;9122;48.406;9.984;2022-09-09T03:17:32;14.90;90.50
17994;DHT22;9122;48.406;9.984;2022-09-09T03:20:16;14.90;90.60
17994;DHT22;9122;48.406;9.984;2022-09-09T03:23:01;14.80;90.60
17994;DHT22;9122;48.406;9.984;2022-09-09T03:25:47;14.80;90.70
17994;DHT22;9122;48.406;9.984;2022-09-09T03:28:32;14.80;90.70
17994;DHT22;9122;48.406;9.984;2022-09-09T03:31:17;14.80;90.70
17994;DHT22;9122;48.406;9.984;2022-09-09T03:34:02;14.80;90.70
17994;DHT22;9122;48.406;9.984;2022-09-09T03:36:47;14.80;90.80
17994;DHT22;9122;48.406;9.984;2022-09-09T03:39:32;14.80;90.70
17994;DHT22;9122;48.406;9.984;2022-09-09T03:42:16;14.80;90.80
17994;DHT22;9122;48.406;9.984;2022-09-09T03:45:08;14.80;90.90
17994;DHT22;9122;48.406;9.984;2022-09-09T03:47:53;14.80;90.90
17994;DHT22;9122;48.406;9.984;2022-09-09T03:50:38;14.80;90.90
17994;DHT22;9122;48.406;9.984;2022-09-09T03:53:23;14.80;91.00
17994;DHT22;9122;48.406;9.984;2022-09-09T03:56:09;14.80;91.00
17994;DHT22;9122;48.406;9.984;2022-09-09T03:58:53;14.80;91.20
17994;DHT22;9122;48.406;9.984;2022-09-09T04:01:38;14.80;91.40
17994;DHT22;9122;48.406;9.984;2022-09-09T04:04:23;14.80;91.70
17994;DHT22;9122;48.406;9.984;2022-09-09T04:07:18;14.80;92.00
17994;DHT22;9122;48.406;9.984;2022-09-09T04:10:02;14.80;92.30
17994;DHT22;9122;48.406;9.984;2022-09-09T04:12:47;14.80;92.40
17994;DHT22;9122;48.406;9.984;2022-09-09T04:15:31;14.80;92.50
17994;DHT22;9122;48.406;9.984;2022-09-09T04:18:16;14.80;92.70
17994;DHT22;9122;48.406;9.984;2022-09-09T04:21:00;14.80;92.80
17994;DHT22;9122;48.406;9.984;2022-09-09T04:23:45;14.90;93.00
17994;DHT22;9122;48.406;9.984;2022-09-09T04:26:30;14.90;93.20
17994;DHT22;9122;48.406;9.984;2022-09-09T04:29:14;14.90;93.20
17994;DHT22;9122;48.406;9.984;2022-09-09T04:32:02;14.90;93.40
17994;DHT22;9122;48.406;9.984;2022-09-09T04:34:46;14.90;93.40
17994;DHT22;9122;48.406;9.984;2022-09-09T04:37:32;14.90;93.40
17994;DHT22;9122;48.406;9.984;2022-09-09T04:40:16;14.90;93.40
17994;DHT22;9122;48.406;9.984;2022-09-09T04:43:02;14.90;93.30
17994;DHT22;9122;48.406;9.984;2022-09-09T04:45:51;14.80;93.40
17994;DHT22;9122;48.406;9.984;2022-09-09T04:48:35;14.80;93.50
17994;DHT22;9122;48.406;9.984;2022-09-09T04:51:20;14.80;93.40
17994;DHT22;9122;48.406;9.984;2022-09-09T04:54:04;14.80;93.40
17994;DHT22;9122;48.406;9.984;2022-09-09T04:56:53;14.80;93.60
17994;DHT22;9122;48.406;9.984;2022-09-09T04:59:39;14.80;93.70
17994;DHT22;9122;48.406;9.984;2022-09-09T05:02:23;14.80;93.70
17994;DHT22;9122;48.406;9.984;2022-09-09T05:05:07;14.80;94.00
17994;DHT22;9122;48.406;9.984;2022-09-09T05:07:52;14.80;94.00
17994;DHT22;9122;48.406;9.984;2022-09-09T05:10:38;14.80;94.20
17994;DHT22;9122;48.406;9.984;2022-09-09T05:13:23;14.90;94.50
17994;DHT22;9122;48.406;9.984;2022-09-09T05:16:08;14.80;94.60
17994;DHT22;9122;48.406;9.984;2022-09-09T05:18:54;14.90;94.70
17994;DHT22;9122;48.406;9.984;2022-09-09T05:21:38;14.90;94.80
17994;DHT22;9122;48.406;9.984;2022-09-09T05:24:23;14.90;94.80
17994;DHT22;9122;48.406;9.984;2022-09-09T05:27:08;14.80;94.80
17994;DHT22;9122;48.406;9.984;2022-09-09T05:29:56;14.90;95.00
17994;DHT22;9122;48.406;9.984;2022-09-09T05:32:41;14.90;95.10
17994;DHT22;9122;48.406;9.984;2022-09-09T05:35:27;14.90;95.20
17994;DHT22;9122;48.406;9.984;2022-09-09T05:38:11;14.90;95.30
17994;DHT22;9122;48.406;9.984;2022-09-09T05:40:56;14.90;95.30
17994;DHT22;9122;48.406;9.984;2022-09-09T05:43:41;14.90;95.30
17994;DHT22;9122;48.406;9.984;2022-09-09T05:46:28;14.90;95.60
17994;DHT22;9122;48.406;9.984;2022-09-09T05:49:13;14.90;95.30
17994;DHT22;9122;48.406;9.984;2022-09-09T05:52:00;14.90;95.30
17994;DHT22;9122;48.406;9.984;2022-09-09T05:54:44;14.90;95.40
17994;DHT22;9122;48.406;9.984;2022-09-09T05:57:29;14.90;95.50
17994;DHT22;9122;48.406;9.984;2022-09-09T06:00:14;15.00;95.50
17994;DHT22;9122;48.406;9.984;2022-09-09T06:02:59;15.00;95.50
17994;DHT22;9122;48.406;9.984;2022-09-09T06:05:44;15.00;95.60
17994;DHT22;9122;48.406;9.984;2022-09-09T06:08:28;15.00;95.70
17994;DHT22;9122;48.406;9.984;2022-09-09T06:11:16;15.00;95.70
17994;DHT22;9122;48.406;9.984;2022-09-09T06:14:00;15.00;95.80
17994;DHT22;9122;48.406;9.984;2022-09-09T06:16:46;15.00;95.90
17994;DHT22;9122;48.406;9.984;2022-09-09T06:19:31;15.00;96.00
17994;DHT22;9122;48.406;9.984;2022-09-09T06:22:15;15.10;96.20
17994;DHT22;9122;48.406;9.984;2022-09-09T06:25:00;15.10;96.10
17994;DHT22;9122;48.406;9.984;2022-09-09T06:27:48;15.10;96.10
17994;DHT22;9122;48.406;9.984;2022-09-09T06:30:33;15.10;96.20
17994;DHT22;9122;48.406;9.984;2022-09-09T06:33:17;15.10;96.20
17994;DHT22;9122;48.406;9.984;2022-09-09T06:36:02;15.20;96.20
17994;DHT22;9122;48.406;9.984;2022-09-09T06:38:47;15.20;96.30
17994;DHT22;9122;48.406;9.984;2022-09-09T06:41:32;15.30;96.30
17994;DHT22;9122;48.406;9.984;2022-09-09T06:44:17;15.30;96.40
17994;DHT22;9122;48.406;9.984;2022-09-09T06:47:01;15.30;96.40
17994;DHT22;9122;48.406;9.984;2022-09-09T06:49:45;15.40;96.40
17994;DHT22;9122;48.406;9.984;2022-09-09T06:52:30;15.40;96.40
17994;DHT22;9122;48.406;9.984;2022-09-09T06:55:14;15.40;96.40
17994;DHT22;9122;48.406;9.984;2022-09-09T06:58:00;15.50;96.50
17994;DHT22;9122;48.406;9.984;2022-09-09T07:00:44;15.60;96.60
17994;DHT22;9122;48.406;9.984;2022-09-09T07:03:28;15.90;96.50
17994;DHT22;9122;48.406;9.984;2022-09-09T07:06:15;16.20;96.10
17994;DHT22;9122;48.406;9.984;2022-09-09T07:09:07;16.60;95.50
17994;DHT22;9122;48.406;9.984;2022-09-09T07:11:52;16.90;94.80
17994;DHT22;9122;48.406;9.984;2022-09-09T07:14:37;17.10;94.40
17994;DHT22;9122;48.406;9.984;2022-09-09T07:17:21;17.40;94.20
17994;DHT22;9122;48.406;9.984;2022-09-09T07:20:06;17.60;93.90
17994;DHT22;9122;48.406;9.984;2022-09-09T07:22:54;17.80;93.60
17994;DHT22;9122;48.406;9.984;2022-09-09T07:25:44;18.10;93.40
17994;DHT22;9122;48.406;9.984;2022-09-09T07:28:29;18.30;92.90
17994;DHT22;9122;48.406;9.984;2022-09-09T07:31:41;18.60;92.50
17994;DHT22;9122;48.406;9.984;2022-09-09T07:34:26;18.70;92.20
17994;DHT22;9122;48.406;9.984;2022-09-09T07:37:10;18.60;92.30
17994;DHT22;9122;48.406;9.984;2022-09-09T07:39:57;18.50;92.40
17994;DHT22;9122;48.406;9.984;2022-09-09T07:42:43;18.60;92.40
17994;DHT22;9122;48.406;9.984;2022-09-09T07:45:28;18.70;92.20
17994;DHT22;9122;48.406;9.984;2022-09-09T07:48:12;18.80;91.90
17994;DHT22;9122;48.406;9.984;2022-09-09T07:51:09;18.70;91.80
17994;DHT22;9122;48.406;9.984;2022-09-09T07:53:57;18.70;92.00
17994;DHT22;9122;48.406;9.984;2022-09-09T07:56:42;18.70;92.10
17994;DHT22;9122;48.406;9.984;2022-09-09T07:59:27;18.80;92.10
17994;DHT22;9122;48.406;9.984;2022-09-09T08:02:13;18.90;92.00
17994;DHT22;9122;48.406;9.984;2022-09-09T08:04:57;19.00;91.50
17994;DHT22;9122;48.406;9.984;2022-09-09T08:07:42;19.20;91.30
17994;DHT22;9122;48.406;9.984;2022-09-09T08:10:27;19.30;91.00
17994;DHT22;9122;48.406;9.984;2022-09-09T08:13:12;19.30;91.00
17994;DHT22;9122;48.406;9.984;2022-09-09T08:16:24;19.40;91.10
17994;DHT22;9122;48.406;9.984;2022-09-09T08:19:12;19.70;91.00
17994;DHT22;9122;48.406;9.984;2022-09-09T08:22:07;20.10;90.30
17994;DHT22;9122;48.406;9.984;2022-09-09T08:24:51;20.40;88.70
17994;DHT22;9122;48.406;9.984;2022-09-09T08:27:36;20.50;88.10
17994;DHT22;9122;48.406;9.984;2022-09-09T08:30:21;20.60;88.40
17994;DHT22;9122;48.406;9.984;2022-09-09T08:33:05;20.60;88.50
17994;DHT22;9122;48.406;9.984;2022-09-09T08:35:52;20.60;88.80
17994;DHT22;9122;48.406;9.984;2022-09-09T08:38:37;20.60;88.70
17994;DHT22;9122;48.406;9.984;2022-09-09T08:44:31;20.50;88.40
17994;DHT22;9122;48.406;9.984;2022-09-09T08:50:25;20.50;88.20
17994;DHT22;9122;48.406;9.984;2022-09-09T08:53:16;20.60;88.40
17994;DHT22;9122;48.406;9.984;2022-09-09T08:56:06;20.80;87.70
17994;DHT22;9122;48.406;9.984;2022-09-09T08:58:54;20.90;87.30
17994;DHT22;9122;48.406;9.984;2022-09-09T09:01:50;21.10;86.80
17994;DHT22;9122;48.406;9.984;2022-09-09T09:07:49;21.20;86.10
17994;DHT22;9122;48.406;9.984;2022-09-09T09:10:53;21.20;86.20
17994;DHT22;9122;48.406;9.984;2022-09-09T09:13:55;21.20;86.10
17994;DHT22;9122;48.406;9.984;2022-09-09T09:19:35;21.30;85.50
17994;DHT22;9122;48.406;9.984;2022-09-09T09:22:23;21.40;85.10
17994;DHT22;9122;48.406;9.984;2022-09-09T09:25:23;21.50;84.00
17994;DHT22;9122;48.406;9.984;2022-09-09T09:28:15;21.60;82.70
17994;DHT22;9122;48.406;9.984;2022-09-09T09:31:06;21.80;82.50
17994;DHT22;9122;48.406;9.984;2022-09-09T09:33:54;21.80;82.70
17994;DHT22;9122;48.406;9.984;2022-09-09T09:36:56;21.90;81.90
17994;DHT22;9122;48.406;9.984;2022-09-09T09:39:41;22.00;82.30
17994;DHT22;9122;48.406;9.984;2022-09-09T09:42:25;22.10;82.90
17994;DHT22;9122;48.406;9.984;2022-09-09T09:45:26;22.20;82.20
17994;DHT22;9122;48.406;9.984;2022-09-09T09:48:13;22.30;80.20
17994;DHT22;9122;48.406;9.984;2022-09-09T09:51:05;22.40;80.00
17994;DHT22;9122;48.406;9.984;2022-09-09T09:53:51;22.50;79.80
17994;DHT22;9122;48.406;9.984;2022-09-09T09:56:37;22.60;78.50
17994;DHT22;9122;48.406;9.984;2022-09-09T10:02:21;22.70;77.40
17994;DHT22;9122;48.406;9.984;2022-09-09T10:05:18;22.70;77.20
17994;DHT22;9122;48.406;9.984;2022-09-09T10:08:15;22.80;77.40
17994;DHT22;9122;48.406;9.984;2022-09-09T10:11:21;22.80;77.30
17994;DHT22;9122;48.406;9.984;2022-09-09T10:14:15;22.90;76.50
17994;DHT22;9122;48.406;9.984;2022-09-09T10:38:40;23.20;72.00
17994;DHT22;9122;48.406;9.984;2022-09-09T10:45:07;23.30;69.80
17994;DHT22;9122;48.406;9.984;2022-09-09T10:48:20;23.40;70.30
17994;DHT22;9122;48.406;9.984;2022-09-09T11:03:01;23.40;67.70
17994;DHT22;9122;48.406;9.984;2022-09-09T11:05:49;23.50;68.40
17994;DHT22;9122;48.406;9.984;2022-09-09T11:08:38;23.60;68.00
17994;DHT22;9122;48.406;9.984;2022-09-09T11:14:31;23.60;65.60
17994;DHT22;9122;48.406;9.984;2022-09-09T11:17:45;23.60;65.80
17994;DHT22;9122;48.406;9.984;2022-09-09T11:20:27;23.60;66.20
17994;DHT22;9122;48.406;9.984;2022-09-09T11:23:20;23.60;66.20
17994;DHT22;9122;48.406;9.984;2022-09-09T11:26:07;23.70;65.70
17994;DHT22;9122;48.406;9.984;2022-09-09T11:40:36;23.60;65.00
17994;DHT22;9122;48.406;9.984;2022-09-09T11:46:35;23.60;62.30
17994;DHT22;9122;48.406;9.984;2022-09-09T11:49:41;23.60;62.50
17994;DHT22;9122;48.406;9.984;2022-09-09T11:52:41;23.60;63.10
17994;DHT22;9122;48.406;9.984;2022-09-09T12:00:56;23.50;65.70
17994;DHT22;9122;48.406;9.984;2022-09-09T12:03:49;23.50;66.20
17994;DHT22;9122;48.406;9.984;2022-09-09T12:09:51;23.60;65.20
17994;DHT22;9122;48.406;9.984;2022-09-09T12:12:37;23.70;65.60
17994;DHT22;9122;48.406;9.984;2022-09-09T12:15:27;23.70;65.30
17994;DHT22;9122;48.406;9.984;2022-09-09T12:24:14;23.90;64.00
17994;DHT22;9122;48.406;9.984;2022-09-09T12:30:14;23.90;61.60
17994;DHT22;9122;48.406;9.984;2022-09-09T12:33:08;24.00;61.30
17994;DHT22;9122;48.406;9.984;2022-09-09T12:35:57;24.00;61.10
17994;DHT22;9122;48.406;9.984;2022-09-09T12:38:43;24.00;61.10
17994;DHT22;9122;48.406;9.984;2022-09-09T12:41:28;24.00;61.30
17994;DHT22;9122;48.406;9.984;2022-09-09T12:44:13;24.00;60.80
17994;DHT22;9122;48.406;9.984;2022-09-09T12:47:00;24.00;61.30
17994;DHT22;9122;48.406;9.984;2022-09-09T12:49:45;23.90;60.50
17994;DHT22;9122;48.406;9.984;2022-09-09T12:52:35;23.90;61.20
17994;DHT22;9122;48.406;9.984;2022-09-09T12:55:24;23.80;60.00
17994;DHT22;9122;48.406;9.984;2022-09-09T12:58:13;23.80;59.80
17994;DHT22;9122;48.406;9.984;2022-09-09T13:01:03;23.70;59.30
17994;DHT22;9122;48.406;9.984;2022-09-09T13:03:51;23.60;60.10
17994;DHT22;9122;48.406;9.984;2022-09-09T13:06:36;23.60;60.70
17994;DHT22;9122;48.406;9.984;2022-09-09T13:09:20;23.60;61.60
17994;DHT22;9122;48.406;9.984;2022-09-09T13:12:09;23.60;62.20
17994;DHT22;9122;48.406;9.984;2022-09-09T13:14:57;23.60;61.80
17994;DHT22;9122;48.406;9.984;2022-09-09T13:17:42;23.50;61.50
17994;DHT22;9122;48.406;9.984;2022-09-09T13:20:27;23.50;60.80
17994;DHT22;9122;48.406;9.984;2022-09-09T13:23:12;23.50;60.00
17994;DHT22;9122;48.406;9.984;2022-09-09T13:26:41;23.50;59.80
17994;DHT22;9122;48.406;9.984;2022-09-09T13:29:18;23.40;60.20
17994;DHT22;9122;48.406;9.984;2022-09-09T13:32:15;23.40;60.60
17994;DHT22;9122;48.406;9.984;2022-09-09T13:35:01;23.40;60.10
17994;DHT22;9122;48.406;9.984;2022-09-09T13:37:46;23.40;60.20
17994;DHT22;9122;48.406;9.984;2022-09-09T13:40:31;23.40;60.10
17994;DHT22;9122;48.406;9.984;2022-09-09T13:43:21;23.40;60.70
17994;DHT22;9122;48.406;9.984;2022-09-09T13:49:23;23.40;60.30
17994;DHT22;9122;48.406;9.984;2022-09-09T13:52:11;23.40;59.50
17994;DHT22;9122;48.406;9.984;2022-09-09T13:54:57;23.40;58.80
17994;DHT22;9122;48.406;9.984;2022-09-09T13:58:03;23.40;58.80
17994;DHT22;9122;48.406;9.984;2022-09-09T14:00:49;23.40;57.00
17994;DHT22;9122;48.406;9.984;2022-09-09T14:03:34;23.40;57.10
17994;DHT22;9122;48.406;9.984;2022-09-09T14:06:18;23.40;57.70
17994;DHT22;9122;48.406;9.984;2022-09-09T14:09:04;23.40;57.10
17994;DHT22;9122;48.406;9.984;2022-09-09T14:11:48;23.40;57.10
17994;DHT22;9122;48.406;9.984;2022-09-09T14:14:32;23.30;57.10
17994;DHT22;9122;48.406;9.984;2022-09-09T14:17:16;23.30;57.10
17994;DHT22;9122;48.406;9.984;2022-09-09T14:20:03;23.30;57.50
17994;DHT22;9122;48.406;9.984;2022-09-09T14:22:50;23.30;57.80
17994;DHT22;9122;48.406;9.984;2022-09-09T14:25:36;23.30;57.90
17994;DHT22;9122;48.406;9.984;2022-09-09T14:28:20;23.30;58.10
17994;DHT22;9122;48.406;9.984;2022-09-09T14:31:05;23.30;58.20
17994;DHT22;9122;48.406;9.984;2022-09-09T14:33:50;23.30;58.70
17994;DHT22;9122;48.406;9.984;2022-09-09T14:36:34;23.30;58.70
17994;DHT22;9122;48.406;9.984;2022-09-09T14:39:19;23.30;58.50
17994;DHT22;9122;48.406;9.984;2022-09-09T14:42:03;23.30;58.60
17994;DHT22;9122;48.406;9.984;2022-09-09T14:44:49;23.20;58.70
17994;DHT22;9122;48.406;9.984;2022-09-09T14:47:33;23.20;58.80
17994;DHT22;9122;48.406;9.984;2022-09-09T14:50:22;23.20;58.40
17994;DHT22;9122;48.406;9.984;2022-09-09T14:53:07;23.30;58.60
17994;DHT22;9122;48.406;9.984;2022-09-09T14:55:52;23.30;58.40
17994;DHT22;9122;48.406;9.984;2022-09-09T14:58:37;23.30;58.20
17994;DHT22;9122;48.406;9.984;2022-09-09T15:01:25;23.30;57.50
17994;DHT22;9122;48.406;9.984;2022-09-09T15:04:13;23.30;57.40
17994;DHT22;9122;48.406;9.984;2022-09-09T15:06:58;23.30;57.00
17994;DHT22;9122;48.406;9.984;2022-09-09T15:09:43;23.30;57.20
17994;DHT22;9122;48.406;9.984;2022-09-09T15:12:28;23.30;57.70
17994;DHT22;9122;48.406;9.984;2022-09-09T15:15:12;23.30;57.60
17994;DHT22;9122;48.406;9.984;2022-09-09T15:17:56;23.30;58.60
17994;DHT22;9122;48.406;9.984;2022-09-09T15:20:44;23.30;58.10
17994;DHT22;9122;48.406;9.984;2022-09-09T15:23:34;23.30;57.80
17994;DHT22;9122;48.406;9.984;2022-09-09T15:26:19;23.30;57.40
17994;DHT22;9122;48.406;9.984;2022-09-09T15:29:05;23.30;57.50
17994;DHT22;9122;48.406;9.984;2022-09-09T15:31:51;23.30;57.20
17994;DHT22;9122;48.406;9.984;2022-09-09T15:34:37;23.30;57.00
17994;DHT22;9122;48.406;9.984;2022-09-09T15:37:21;23.30;57.00
17994;DHT22;9122;48.406;9.984;2022-09-09T15:40:06;23.30;56.60
17994;DHT22;9122;48.406;9.984;2022-09-09T15:42:51;23.30;56.60
17994;DHT22;9122;48.406;9.984;2022-09-09T15:45:36;23.30;56.60
17994;DHT22;9122;48.406;9.984;2022-09-09T15:48:31;23.20;56.40
17994;DHT22;9122;48.406;9.984;2022-09-09T15:51:19;23.20;56.20
17994;DHT22;9122;48.406;9.984;2022-09-09T15:54:04;23.20;55.90
17994;DHT22;9122;48.406;9.984;2022-09-09T15:56:52;23.30;55.80
17994;DHT22;9122;48.406;9.984;2022-09-09T15:59:38;23.30;55.30
17994;DHT22;9122;48.406;9.984;2022-09-09T16:02:24;23.20;55.20
17994;DHT22;9122;48.406;9.984;2022-09-09T16:05:08;23.20;55.40
17994;DHT22;9122;48.406;9.984;2022-09-09T16:07:53;23.20;55.50
17994;DHT22;9122;48.406;9.984;2022-09-09T16:10:37;23.20;55.40
17994;DHT22;9122;48.406;9.984;2022-09-09T16:13:22;23.10;55.50
17994;DHT22;9122;48.406;9.984;2022-09-09T16:16:07;23.10;55.40
17994;DHT22;9122;48.406;9.984;2022-09-09T16:18:54;23.10;55.30
17994;DHT22;9122;48.406;9.984;2022-09-09T16:21:44;23.10;55.60
17994;DHT22;9122;48.406;9.984;2022-09-09T16:24:29;23.10;55.70
17994;DHT22;9122;48.406;9.984;2022-09-09T16:27:13;23.00;55.60
17994;DHT22;9122;48.406;9.984;2022-09-09T16:29:58;23.10;56.10
17994;DHT22;9122;48.406;9.984;2022-09-09T16:32:42;23.00;55.30
17994;DHT22;9122;48.406;9.984;2022-09-09T16:35:27;23.00;55.30
17994;DHT22;9122;48.406;9.984;2022-09-09T16:38:11;23.00;55.60
17994;DHT22;9122;48.406;9.984;2022-09-09T16:41:00;22.90;55.60
17994;DHT22;9122;48.406;9.984;2022-09-09T16:43:45;22.90;55.30
17994;DHT22;9122;48.406;9.984;2022-09-09T16:46:31;22.90;55.20
17994;DHT22;9122;48.406;9.984;2022-09-09T16:49:18;22.90;55.10
17994;DHT22;9122;48.406;9.984;2022-09-09T16:52:02;22.90;55.50
17994;DHT22;9122;48.406;9.984;2022-09-09T16:54:47;22.80;55.60
17994;DHT22;9122;48.406;9.984;2022-09-09T16:57:32;22.80;55.70
17994;DHT22;9122;48.406;9.984;2022-09-09T17:00:16;22.80;55.80
17994;DHT22;9122;48.406;9.984;2022-09-09T17:03:04;22.80;56.10
17994;DHT22;9122;48.406;9.984;2022-09-09T17:05:49;22.80;56.00
17994;DHT22;9122;48.406;9.984;2022-09-09T17:08:34;22.80;55.80
17994;DHT22;9122;48.406;9.984;2022-09-09T17:11:19;22.70;55.90
17994;DHT22;9122;48.406;9.984;2022-09-09T17:14:04;22.70;56.10
17994;DHT22;9122;48.406;9.984;2022-09-09T17:16:49;22.70;56.00
17994;DHT22;9122;48.406;9.984;2022-09-09T17:19:34;22.70;56.10
17994;DHT22;9122;48.406;9.984;2022-09-09T17:22:19;22.70;56.20
17994;DHT22;9122;48.406;9.984;2022-09-09T17:25:04;22.60;56.60
17994;DHT22;9122;48.406;9.984;2022-09-09T17:27:49;22.60;56.70
17994;DHT22;9122;48.406;9.984;2022-09-09T17:30:35;22.60;57.80
17994;DHT22;9122;48.406;9.984;2022-09-09T17:33:20;22.50;58.50
17994;DHT22;9122;48.406;9.984;2022-09-09T17:36:12;22.50;59.00
17994;DHT22;9122;48.406;9.984;2022-09-09T17:38:58;22.40;58.90
17994;DHT22;9122;48.406;9.984;2022-09-09T17:41:43;22.40;57.80
17994;DHT22;9122;48.406;9.984;2022-09-09T17:44:27;22.30;57.30
17994;DHT22;9122;48.406;9.984;2022-09-09T17:47:12;22.30;56.90
17994;DHT22;9122;48.406;9.984;2022-09-09T17:49:57;22.20;56.50
17994;DHT22;9122;48.406;9.984;2022-09-09T17:52:41;22.10;56.10
17994;DHT22;9122;48.406;9.984;2022-09-09T17:55:25;22.10;55.70
17994;DHT22;9122;48.406;9.984;2022-09-09T17:58:10;22.00;55.50
17994;DHT22;9122;48.406;9.984;2022-09-09T18:00:54;22.00;55.40
17994;DHT22;9122;48.406;9.984;2022-09-09T18:03:40;21.90;55.30
17994;DHT22;9122;48.406;9.984;2022-09-09T18:06:28;21.80;55.40
17994;DHT22;9122;48.406;9.984;2022-09-09T18:09:16;21.80;55.70
17994;DHT22;9122;48.406;9.984;2022-09-09T18:12:01;21.80;55.90
17994;DHT22;9122;48.406;9.984;2022-09-09T18:14:45;21.70;56.10
17994;DHT22;9122;48.406;9.984;2022-09-09T18:17:31;21.70;56.30
17994;DHT22;9122;48.406;9.984;2022-09-09T18:20:15;21.60;56.70
17994;DHT22;9122;48.406;9.984;2022-09-09T18:23:00;21.50;57.00
17994;DHT22;9122;48.406;9.984;2022-09-09T18:25:44;21.50;57.20
17994;DHT22;9122;48.406;9.984;2022-09-09T18:28:29;21.40;57.40
17994;DHT22;9122;48.406;9.984;2022-09-09T18:31:15;21.40;57.60
17994;DHT22;9122;48.406;9.984;2022-09-09T18:34:01;21.30;57.70
17994;DHT22;9122;48.406;9.984;2022-09-09T18:36:49;21.30;57.80
17994;DHT22;9122;48.406;9.984;2022-09-09T18:39:37;21.30;57.90
17994;DHT22;9122;48.406;9.984;2022-09-09T18:42:21;21.30;58.20
17994;DHT22;9122;48.406;9.984;2022-09-09T18:45:06;21.20;58.80
17994;DHT22;9122;48.406;9.984;2022-09-09T18:47:50;21.20;58.50
17994;DHT22;9122;48.406;9.984;2022-09-09T18:50:35;21.10;58.70
17994;DHT22;9122;48.406;9.984;2022-09-09T18:53:19;21.10;58.90
17994;DHT22;9122;48.406;9.984;2022-09-09T18:56:09;21.00;59.10
17994;DHT22;9122;48.406;9.984;2022-09-09T18:58:55;21.00;59.40
17994;DHT22;9122;48.406;9.984;2022-09-09T19:01:41;21.00;59.60
17994;DHT22;9122;48.406;9.984;2022-09-09T19:04:25;21.00;59.80
17994;DHT22;9122;48.406;9.984;2022-09-09T19:07:10;20.90;60.00
17994;DHT22;9122;48.406;9.984;2022-09-09T19:09:55;20.90;60.40
17994;DHT22;9122;48.406;9.984;2022-09-09T19:12:39;20.80;60.70
17994;DHT22;9122;48.406;9.984;2022-09-09T19:15:24;20.80;61.40
17994;DHT22;9122;48.406;9.984;2022-09-09T19:18:08;20.80;62.20
17994;DHT22;9122;48.406;9.984;2022-09-09T19:20:53;20.70;62.60
17994;DHT22;9122;48.406;9.984;2022-09-09T19:23:39;20.70;63.00
17994;DHT22;9122;48.406;9.984;2022-09-09T19:26:23;20.60;63.20
17994;DHT22;9122;48.406;9.984;2022-09-09T19:29:12;20.60;63.70
17994;DHT22;9122;48.406;9.984;2022-09-09T19:31:59;20.60;64.00
17994;DHT22;9122;48.406;9.984;2022-09-09T19:34:45;20.50;64.20
17994;DHT22;9122;48.406;9.984;2022-09-09T19:37:29;20.50;64.60
17994;DHT22;9122;48.406;9.984;2022-09-09T19:40:15;20.40;64.60
17994;DHT22;9122;48.406;9.984;2022-09-09T19:43:00;20.40;65.00
17994;DHT22;9122;48.406;9.984;2022-09-09T19:45:55;20.40;65.40
17994;DHT22;9122;48.406;9.984;2022-09-09T19:48:41;20.30;65.80
17994;DHT22;9122;48.406;9.984;2022-09-09T19:51:26;20.30;65.70
17994;DHT22;9122;48.406;9.984;2022-09-09T19:54:12;20.20;65.30
17994;DHT22;9122;48.406;9.984;2022-09-09T19:56:57;20.20;65.10
17994;DHT22;9122;48.406;9.984;2022-09-09T19:59:43;20.20;65.30
17994;DHT22;9122;48.406;9.984;2022-09-09T20:02:27;20.20;65.70
17994;DHT22;9122;48.406;9.984;2022-09-09T20:05:11;20.20;66.00
17994;DHT22;9122;48.406;9.984;2022-09-09T20:07:57;20.10;66.30